Time;durP1;ratioP1;P1;durP2;ratioP2;P2;SDS_P1;SDS_P2;PMS_P1;PMS_P2;Temp;Humidity;BMP_temperature;BMP_pressure;BME280_temperature;BME280_humidity;BME280_pressure;Samples;Min_cycle;Max_cycle;Signal;HPM_P1;HPM_P2
2022/06/08 00:00:07;;;;;;;4.60;3.70;;;;;;;14.50;73.87;98649.70;104732;1274;61121;-25
2022/06/08 00:02:36;;;;;;;6.30;4.80;;;;;;;14.87;73.15;98646.96;104631;1274;76298;-26
2022/06/08 00:05:04;;;;;;;5.90;4.80;;;;;;;15.31;71.67;98642.31;104638;1274;76095;-25
2022/06/08 00:07:32;;;;;;;6.20;5.30;;;;;;;15.32;71.07;98641.69;104645;1274;75570;-25
2022/06/08 00:09:59;;;;;;;7.40;6.20;;;;;;;15.12;71.32;98639.96;104787;1275;61728;-25
2022/06/08 00:12:27;;;;;;;10.70;6.50;;;;;;;14.89;72.39;98641.90;104727;1274;63045;-25
2022/06/08 00:14:54;;;;;;;10.20;7.30;;;;;;;14.64;72.54;98640.05;104695;1274;75573;-25
2022/06/08 00:17:22;;;;;;;12.30;7.80;;;;;;;14.43;73.16;98640.35;104961;1274;74823;-25
2022/06/08 00:19:50;;;;;;;8.20;5.30;;;;;;;14.26;73.70;98639.15;104746;1274;75255;-25
2022/06/08 00:22:17;;;;;;;10.30;6.20;;;;;;;14.67;74.05;98641.55;104658;1272;61729;-25
2022/06/08 00:24:45;;;;;;;9.20;7.40;;;;;;;15.19;72.56;98638.35;105028;1274;63088;-25
2022/06/08 00:27:12;;;;;;;10.10;6.10;;;;;;;15.23;72.11;98635.67;105052;1274;76624;-25
2022/06/08 00:29:39;;;;;;;10.90;6.90;;;;;;;15.03;72.31;98630.90;105081;1271;75807;-26
2022/06/08 00:32:07;;;;;;;10.30;6.90;;;;;;;14.79;72.79;98628.75;104847;1274;75492;-25
2022/06/08 00:34:35;;;;;;;10.20;7.70;;;;;;;14.53;73.12;98626.88;104651;1274;61766;-25
2022/06/08 00:37:03;;;;;;;15.90;9.20;;;;;;;14.28;73.63;98627.05;105031;1274;62480;-25
2022/06/08 00:39:31;;;;;;;7.20;5.30;;;;;;;14.08;74.02;98624.39;104858;1275;77099;-25
2022/06/08 00:42:03;;;;;;;6.90;4.80;;;;;;;14.47;73.86;98630.45;104934;1274;75942;-25
2022/06/08 00:44:44;;;;;;;7.00;5.20;;;;;;;14.97;72.40;98624.46;104765;1276;74162;-25
2022/06/08 00:47:14;;;;;;;6.40;5.20;;;;;;;14.96;71.86;98624.70;104606;1274;61922;-25
2022/06/08 00:49:48;;;;;;;7.60;5.10;;;;;;;14.74;72.16;98620.38;104496;1277;61774;-25
2022/06/08 00:52:15;;;;;;;7.40;5.80;;;;;;;14.44;72.92;98620.08;104600;1274;75587;-25
2022/06/08 00:54:46;;;;;;;8.50;6.10;;;;;;;14.17;73.55;98618.91;104596;1274;75797;-25
2022/06/08 00:57:19;;;;;;;6.10;4.30;;;;;;;13.95;74.46;98617.84;104407;1277;74218;-25
2022/06/08 00:59:56;;;;;;;6.60;4.60;;;;;;;14.33;74.61;98622.15;104614;1277;63101;-25
2022/06/08 01:02:23;;;;;;;6.60;5.70;;;;;;;14.81;73.34;98624.70;104806;1275;62159;-25
2022/06/08 01:05:23;;;;;;;5.80;4.90;;;;;;;14.81;72.13;98618.91;104972;1274;75763;-25
2022/06/08 01:07:54;;;;;;;5.90;5.30;;;;;;;14.54;71.36;98618.93;104742;1275;75915;-25
2022/06/08 01:10:27;;;;;;;9.40;6.70;;;;;;;14.25;72.32;98620.39;104627;1277;75555;-25
2022/06/08 01:12:56;;;;;;;11.10;8.90;;;;;;;13.99;73.50;98616.31;104887;1274;61727;-25
2022/06/08 01:15:25;;;;;;;9.00;5.50;;;;;;;13.78;74.41;98617.29;104768;1277;63185;-25
2022/06/08 01:17:52;;;;;;;8.50;6.20;;;;;;;14.13;74.65;98616.20;104640;1275;75514;-25
2022/06/08 01:20:20;;;;;;;8.70;7.40;;;;;;;14.59;73.38;98612.13;104853;1273;76093;-25
2022/06/08 01:22:48;;;;;;;8.40;6.30;;;;;;;14.60;72.86;98611.14;104664;1275;74644;-24
2022/06/08 01:25:16;;;;;;;10.70;7.10;;;;;;;14.41;72.73;98611.58;104604;1274;61898;-25
2022/06/08 01:28:04;;;;;;;10.30;6.70;;;;;;;14.14;73.36;98608.06;104683;1274;63436;-25
2022/06/08 01:31:11;;;;;;;9.20;7.20;;;;;;;13.83;74.04;98608.60;104621;1275;76831;-25
2022/06/08 01:33:53;;;;;;;6.50;4.50;;;;;;;13.59;75.18;98606.65;104678;1274;77008;-25
2022/06/08 01:36:41;;;;;;;8.20;4.90;;;;;;;14.18;74.47;98605.58;104622;1275;75379;-25
2022/06/08 01:39:19;;;;;;;6.00;4.80;;;;;;;14.57;73.18;98606.73;104683;1275;62040;-25
2022/06/08 01:42:05;;;;;;;7.30;5.30;;;;;;;14.49;72.89;98605.62;104759;1274;61982;-25
2022/06/08 01:44:42;;;;;;;5.60;4.70;;;;;;;14.23;73.08;98605.17;104925;1274;76610;-25
2022/06/08 01:47:17;;;;;;;5.30;4.80;;;;;;;13.96;73.49;98601.65;104713;1274;75990;-25
2022/06/08 01:50:02;;;;;;;7.20;4.90;;;;;;;13.67;74.24;98601.47;104620;1274;75694;-25
2022/06/08 01:52:42;;;;;;;4.00;3.10;;;;;;;13.44;75.31;98602.69;104674;1277;64803;-25
2022/06/08 01:55:18;;;;;;;4.80;3.70;;;;;;;13.97;75.09;98603.33;104819;1274;63309;-25
2022/06/08 01:57:55;;;;;;;12.20;5.00;;;;;;;14.45;73.87;98601.52;104691;1274;75651;-25
2022/06/08 02:00:34;;;;;;;10.10;6.40;;;;;;;14.44;73.07;98600.45;104937;1274;75736;-25
2022/06/08 02:03:12;;;;;;;11.00;5.80;;;;;;;14.20;73.22;98601.50;104891;1274;75877;-25
2022/06/08 02:05:43;;;;;;;6.30;5.20;;;;;;;13.90;73.51;98603.66;104775;1274;61609;-25
2022/06/08 02:08:38;;;;;;;7.30;5.50;;;;;;;13.66;73.88;98604.76;104857;1274;61648;-25
2022/06/08 02:11:18;;;;;;;6.50;5.60;;;;;;;13.36;74.10;98603.89;104884;1274;75718;-25
2022/06/08 02:13:55;;;;;;;6.10;2.90;;;;;;;13.12;75.02;98601.44;104644;1274;75449;-25
2022/06/08 02:16:26;;;;;;;5.30;3.70;;;;;;;13.63;74.64;98600.35;104693;1275;74267;-25
2022/06/08 02:18:57;;;;;;;6.10;4.70;;;;;;;14.12;73.48;98602.20;104800;1274;63238;-25
2022/06/08 02:21:47;;;;;;;8.70;5.50;;;;;;;14.12;73.35;98602.63;104664;1274;63318;-25
2022/06/08 02:24:28;;;;;;;6.90;4.70;;;;;;;13.97;73.43;98601.75;104781;1274;76871;-25
2022/06/08 02:27:01;;;;;;;6.30;4.30;;;;;;;13.84;73.41;98601.86;104555;1274;76715;-25
2022/06/08 02:29:36;;;;;;;8.30;4.80;;;;;;;13.79;73.69;98603.67;104552;1274;75456;-25
2022/06/08 02:34:28;;;;;;;5.80;3.10;;;;;;;13.80;73.92;98602.98;104609;1274;63677;-25
2022/06/08 02:34:59;;;;;;;6.10;3.30;;;;;;;14.46;73.38;98603.72;104721;1274;61613;-25
2022/06/08 02:37:28;;;;;;;6.40;4.30;;;;;;;15.06;72.06;98596.73;104706;1275;75496;-25
2022/06/08 02:40:23;;;;;;;5.10;4.50;;;;;;;15.41;71.10;98595.67;104751;1274;76931;-25
2022/06/08 02:42:53;;;;;;;10.50;4.00;;;;;;;15.64;69.29;98595.93;104775;1275;73273;-25
2022/06/08 02:45:24;;;;;;;5.00;4.00;;;;;;;15.77;67.97;98597.96;104683;1275;61837;-25
2022/06/08 02:47:54;;;;;;;4.80;4.30;;;;;;;15.86;67.49;98597.16;104659;1277;63188;-25
2022/06/08 02:50:23;;;;;;;6.60;4.20;;;;;;;15.98;67.70;98599.54;104436;1274;75528;-25
2022/06/08 02:52:51;;;;;;;3.90;2.90;;;;;;;16.11;67.71;98601.94;104638;1274;77191;-25
2022/06/08 02:55:26;;;;;;;4.80;3.50;;;;;;;16.83;67.14;98605.69;104818;1274;74217;-25
2022/06/08 02:58:08;;;;;;;9.00;3.80;;;;;;;17.68;64.83;98604.32;104578;1274;63285;-25
2022/06/08 03:00:42;;;;;;;3.80;3.30;;;;;;;18.00;63.42;98611.29;104609;1274;61738;-25
2022/06/08 03:03:16;;;;;;;3.50;3.20;;;;;;;18.09;62.86;98610.23;104735;1274;75540;-25
2022/06/08 03:05:43;;;;;;;5.30;3.90;;;;;;;18.14;62.20;98610.84;104515;1274;77320;-25
2022/06/08 03:08:16;;;;;;;3.60;3.30;;;;;;;18.20;62.23;98610.42;104742;1274;75725;-25
2022/06/08 03:10:43;;;;;;;4.00;3.30;;;;;;;18.26;62.00;98611.31;104580;1275;62411;-25
2022/06/08 03:13:20;;;;;;;4.60;3.60;;;;;;;18.26;61.83;98614.14;104772;1274;62779;-25
2022/06/08 03:15:59;;;;;;;5.10;3.30;;;;;;;18.25;61.86;98611.78;104518;1274;76365;-25
2022/06/08 03:18:26;;;;;;;4.10;3.70;;;;;;;18.27;61.72;98610.51;104712;1274;77039;-25
2022/06/08 03:20:55;;;;;;;4.20;3.60;;;;;;;18.33;61.75;98610.08;104759;1273;75411;-25
2022/06/08 03:23:25;;;;;;;3.70;2.70;;;;;;;18.48;61.74;98614.70;104635;1274;63610;-25
2022/06/08 03:25:53;;;;;;;5.90;3.10;;;;;;;19.18;60.79;98618.79;104994;1274;62989;-25
2022/06/08 03:28:21;;;;;;;3.70;2.80;;;;;;;19.99;58.47;98613.87;104618;1274;76662;-25
2022/06/08 03:30:50;;;;;;;4.00;3.00;;;;;;;20.33;57.33;98612.05;105010;1274;76211;-25
2022/06/08 03:33:17;;;;;;;4.00;2.80;;;;;;;20.42;56.94;98611.83;104876;1274;75347;-25
2022/06/08 03:35:45;;;;;;;3.90;3.00;;;;;;;20.40;56.70;98610.84;105008;1274;63500;-25
2022/06/08 03:38:12;;;;;;;4.00;3.40;;;;;;;20.38;56.70;98611.33;104750;1274;63082;-25
2022/06/08 03:40:41;;;;;;;12.20;9.20;;;;;;;20.37;56.54;98612.30;104713;1275;74725;-25
2022/06/08 03:43:10;;;;;;;17.20;13.20;;;;;;;20.33;56.77;98611.80;104568;1274;77025;-25
2022/06/08 03:45:44;;;;;;;28.30;19.60;;;;;;;20.29;56.96;98613.63;104852;1274;75716;-25
2022/06/08 03:48:12;;;;;;;23.70;17.10;;;;;;;20.31;57.24;98612.83;104732;1274;61908;-24
2022/06/08 03:50:42;;;;;;;14.80;11.40;;;;;;;20.34;56.99;98615.79;104766;1275;63075;-25
2022/06/08 03:53:14;;;;;;;12.40;9.30;;;;;;;20.38;57.07;98617.02;104986;1274;75364;-25
2022/06/08 03:55:41;;;;;;;12.30;10.80;;;;;;;20.46;56.58;98617.45;104775;1274;76039;-25
2022/06/08 03:58:09;;;;;;;10.40;8.70;;;;;;;20.54;56.78;98619.34;104740;1274;75201;-25
2022/06/08 04:00:38;;;;;;;11.60;8.70;;;;;;;20.50;57.32;98618.56;104677;1273;62338;-25
2022/06/08 04:03:07;;;;;;;9.20;8.30;;;;;;;20.46;57.97;98617.38;104701;1274;61442;-25
2022/06/08 04:05:35;;;;;;;10.40;9.00;;;;;;;20.61;57.41;98617.69;104641;1275;76865;-25
2022/06/08 04:08:07;;;;;;;15.30;12.60;;;;;;;20.81;57.41;98620.06;104648;1274;75833;-25
2022/06/08 04:10:39;;;;;;;14.60;13.00;;;;;;;21.08;56.83;98617.27;104679;1275;75562;-25
2022/06/08 04:13:06;;;;;;;14.90;13.30;;;;;;;21.28;56.35;98616.39;104572;1275;63000;-25
2022/06/08 04:15:43;;;;;;;8.70;7.80;;;;;;;21.40;56.20;98616.33;104654;1274;61706;-25
2022/06/08 04:18:26;;;;;;;5.90;4.90;;;;;;;21.55;55.54;98616.80;104636;1274;75125;-25
2022/06/08 04:20:58;;;;;;;3.90;3.50;;;;;;;21.70;55.09;98621.48;104634;1274;75817;-25
2022/06/08 04:23:33;;;;;;;6.50;3.70;;;;;;;21.85;54.97;98620.50;104479;1274;73701;-25
2022/06/08 04:26:00;;;;;;;4.80;3.40;;;;;;;21.93;54.64;98620.86;104699;1275;61763;-24
2022/06/08 04:28:28;;;;;;;4.50;3.10;;;;;;;22.04;54.46;98618.27;104887;1274;61389;-24
2022/06/08 04:31:00;;;;;;;4.50;3.00;;;;;;;22.19;54.68;98616.88;104816;1274;75498;-23
2022/06/08 04:33:29;;;;;;;4.60;2.90;;;;;;;22.35;54.36;98619.16;104851;1274;75294;-24
2022/06/08 04:35:56;;;;;;;5.40;3.50;;;;;;;22.51;54.14;98617.83;104651;1274;75423;-23
2022/06/08 04:38:27;;;;;;;3.90;2.50;;;;;;;22.70;53.65;98620.87;105035;1274;62078;-24
2022/06/08 04:40:54;;;;;;;4.00;2.90;;;;;;;22.77;52.92;98621.10;105063;1272;61954;-24
2022/06/08 04:43:22;;;;;;;2.70;2.40;;;;;;;22.84;53.07;98620.30;104979;1272;74786;-23
2022/06/08 04:45:50;;;;;;;8.30;2.80;;;;;;;22.99;52.41;98622.11;104723;1274;76816;-24
2022/06/08 04:48:19;;;;;;;3.30;2.70;;;;;;;23.10;52.15;98620.55;104825;1274;75531;-23
2022/06/08 04:50:48;;;;;;;4.50;2.60;;;;;;;23.24;52.38;98621.85;105012;1274;63264;-24
2022/06/08 04:53:15;;;;;;;4.90;2.20;;;;;;;23.41;51.73;98618.74;105050;1271;63180;-24
2022/06/08 04:55:43;;;;;;;2.50;2.10;;;;;;;23.55;51.36;98617.95;104919;1274;75957;-24
2022/06/08 04:58:11;;;;;;;6.20;2.70;;;;;;;23.66;51.07;98618.58;104888;1271;75334;-23
2022/06/08 05:00:39;;;;;;;2.60;2.00;;;;;;;23.76;50.64;98616.84;104833;1274;74581;-24
2022/06/08 05:03:07;;;;;;;2.20;2.00;;;;;;;23.78;49.79;98615.22;105021;1274;63288;-24
2022/06/08 05:05:39;;;;;;;3.90;2.00;;;;;;;23.84;49.81;98612.86;104979;1274;63050;-24
2022/06/08 05:08:18;;;;;;;3.40;1.80;;;;;;;23.82;49.15;98617.59;104721;1274;76389;-23
2022/06/08 05:10:47;;;;;;;2.00;1.80;;;;;;;23.74;49.35;98618.45;104747;1274;77048;-24
2022/06/08 05:13:17;;;;;;;3.40;1.50;;;;;;;23.83;49.56;98619.00;104837;1274;73492;-24
2022/06/08 05:15:46;;;;;;;3.30;1.60;;;;;;;23.95;49.00;98611.17;104667;1274;62827;-24
2022/06/08 05:18:15;;;;;;;2.00;1.80;;;;;;;24.10;48.74;98612.08;104760;1274;61988;-24
2022/06/08 05:20:43;;;;;;;2.40;1.60;;;;;;;24.12;48.24;98611.52;104668;1275;76662;-24
2022/06/08 05:23:17;;;;;;;3.60;1.80;;;;;;;24.08;48.53;98607.10;104673;1274;77026;-24
2022/06/08 05:25:46;;;;;;;4.50;1.80;;;;;;;24.19;47.56;98606.08;104787;1274;74186;-24
2022/06/08 05:28:14;;;;;;;3.10;1.60;;;;;;;24.18;47.62;98604.33;104860;1274;63112;-24
2022/06/08 05:30:49;;;;;;;1.80;1.50;;;;;;;24.24;47.46;98599.80;104838;1274;61426;-24
2022/06/08 05:33:17;;;;;;;4.00;1.70;;;;;;;24.32;46.96;98599.59;104668;1274;76674;-24
2022/06/08 05:35:45;;;;;;;2.20;1.40;;;;;;;24.40;47.62;98602.80;104856;1274;76418;-24
2022/06/08 05:38:12;;;;;;;2.80;1.60;;;;;;;24.47;46.49;98601.55;105104;1274;75745;-25
2022/06/08 05:40:40;;;;;;;5.20;1.60;;;;;;;24.56;47.04;98600.37;104788;1274;61988;-24
2022/06/08 05:43:10;;;;;;;2.60;1.60;;;;;;;24.70;46.69;98601.93;105040;1274;61760;-24
2022/06/08 05:45:39;;;;;;;1.70;1.40;;;;;;;24.74;45.86;98602.98;104892;1274;76385;-25
2022/06/08 05:48:08;;;;;;;2.60;1.70;;;;;;;24.89;46.11;98605.41;104705;1275;76140;-25
2022/06/08 05:50:36;;;;;;;2.40;1.60;;;;;;;25.04;45.72;98607.10;104770;1274;73611;-24
2022/06/08 05:53:05;;;;;;;2.00;1.80;;;;;;;25.23;45.95;98610.33;104686;1274;61901;-23
2022/06/08 05:55:33;;;;;;;2.90;1.60;;;;;;;25.40;45.62;98607.99;104793;1274;61704;-23
2022/06/08 05:58:01;;;;;;;4.00;1.50;;;;;;;25.56;45.83;98609.65;104934;1274;74564;-23
2022/06/08 06:00:37;;;;;;;3.00;1.50;;;;;;;25.75;44.34;98609.12;104656;1274;75622;-23
2022/06/08 06:03:04;;;;;;;1.60;1.50;;;;;;;25.76;44.71;98607.22;104726;1274;75391;-24
2022/06/08 06:05:36;;;;;;;2.30;1.50;;;;;;;25.23;44.63;98608.00;104677;1274;63118;-23
2022/06/08 06:08:07;;;;;;;2.90;1.60;;;;;;;24.98;45.30;98609.35;104764;1274;62394;-24
2022/06/08 06:10:40;;;;;;;4.10;1.30;;;;;;;24.99;43.94;98606.80;104672;1274;76712;-24
2022/06/08 06:13:07;;;;;;;2.00;1.30;;;;;;;24.95;43.88;98605.52;104514;1274;77212;-25
2022/06/08 06:15:42;;;;;;;2.60;1.20;;;;;;;24.86;42.65;98603.31;104637;1274;74682;-24
2022/06/08 06:18:16;;;;;;;2.40;1.40;;;;;;;24.59;43.72;98604.78;104715;1274;63180;-24
2022/06/08 06:20:49;;;;;;;2.80;1.10;;;;;;;24.65;44.12;98602.69;104594;1274;62796;-25
2022/06/08 06:23:39;;;;;;;2.60;1.40;;;;;;;24.87;44.38;98602.98;104525;1274;74616;-24
2022/06/08 06:26:31;;;;;;;5.50;1.10;;;;;;;24.89;41.96;98603.98;105057;1274;76908;-25
2022/06/08 06:29:10;;;;;;;2.10;1.10;;;;;;;24.78;41.55;98603.23;104988;1271;75444;-22
2022/06/08 06:31:58;;;;;;;2.30;1.00;;;;;;;24.96;42.93;98607.92;104899;1274;63147;-23
2022/06/08 06:34:29;;;;;;;2.60;0.90;;;;;;;25.23;42.06;98609.63;104524;1274;61982;-24
2022/06/08 06:36:58;;;;;;;2.50;0.80;;;;;;;25.36;40.64;98608.30;104505;1274;76309;-23
2022/06/08 06:39:27;;;;;;;1.20;0.90;;;;;;;25.01;38.90;98608.50;104726;1274;76164;-23
2022/06/08 06:42:00;;;;;;;0.80;0.60;;;;;;;25.12;40.55;98605.63;104708;1274;75348;-23
2022/06/08 06:44:33;;;;;;;1.30;1.00;;;;;;;25.10;40.05;98607.44;104757;1274;61479;-23
2022/06/08 06:47:11;;;;;;;5.00;1.10;;;;;;;25.35;40.01;98611.47;104945;1274;61831;-23
2022/06/08 06:49:49;;;;;;;4.50;1.10;;;;;;;25.61;40.32;98608.11;104795;1274;75862;-23
2022/06/08 06:52:18;;;;;;;1.00;0.80;;;;;;;25.68;41.07;98610.11;104771;1274;75370;-23
2022/06/08 06:54:47;;;;;;;1.00;0.90;;;;;;;25.71;39.47;98612.41;104560;1274;75363;-23
2022/06/08 06:57:15;;;;;;;3.70;1.00;;;;;;;25.55;38.61;98610.86;104818;1274;61803;-23
2022/06/08 06:59:42;;;;;;;1.80;0.90;;;;;;;25.46;38.82;98609.20;104736;1274;63317;-23
2022/06/08 07:02:15;;;;;;;2.10;1.00;;;;;;;25.36;39.41;98611.61;104618;1274;75370;-23
2022/06/08 07:04:43;;;;;;;2.50;0.70;;;;;;;25.67;39.11;98609.02;104315;1274;74860;-23
2022/06/08 07:07:11;;;;;;;1.10;1.00;;;;;;;25.63;38.52;98608.04;104676;1274;75323;-23
2022/06/08 07:09:38;;;;;;;4.80;1.10;;;;;;;25.51;38.27;98611.54;104793;1274;63221;-24
2022/06/08 07:12:07;;;;;;;1.40;0.90;;;;;;;25.62;38.38;98611.05;104895;1274;61587;-23
2022/06/08 07:14:39;;;;;;;5.10;1.50;;;;;;;26.02;40.28;98614.36;104619;1274;76277;-23
2022/06/08 07:17:11;;;;;;;2.80;0.80;;;;;;;26.40;38.92;98610.39;104639;1273;76412;-23
2022/06/08 07:19:41;;;;;;;1.60;0.90;;;;;;;26.43;37.58;98605.52;104836;1273;75244;-23
2022/06/08 07:22:11;;;;;;;3.20;0.90;;;;;;;26.64;38.11;98608.35;104641;1274;61990;-23
2022/06/08 07:24:38;;;;;;;1.80;1.10;;;;;;;26.74;38.34;98609.41;104682;1274;63071;-23
2022/06/08 07:27:05;;;;;;;1.70;0.80;;;;;;;27.10;37.36;98608.23;104634;1274;75201;-23
2022/06/08 07:29:33;;;;;;;2.10;0.90;;;;;;;27.37;37.28;98606.42;104469;1274;75954;-23
2022/06/08 07:32:01;;;;;;;1.40;1.10;;;;;;;27.48;36.13;98605.14;104655;1274;74311;-23
2022/06/08 07:34:28;;;;;;;1.10;0.80;;;;;;;27.28;35.74;98606.46;104720;1274;62973;-23
2022/06/08 07:36:56;;;;;;;1.00;0.90;;;;;;;27.07;35.13;98608.55;104643;1274;62862;-23
2022/06/08 07:39:24;;;;;;;4.20;1.10;;;;;;;26.82;35.64;98606.30;104649;1274;76506;-22
2022/06/08 07:41:51;;;;;;;1.80;1.00;;;;;;;26.95;36.79;98605.61;104785;1274;76072;-23
2022/06/08 07:44:18;;;;;;;1.20;0.80;;;;;;;27.30;36.34;98600.13;105003;1273;74776;-23
2022/06/08 07:46:47;;;;;;;2.00;0.90;;;;;;;27.03;35.24;98606.64;104802;1274;63148;-23
2022/06/08 07:52:10;;;;;;;3.90;1.10;;;;;;;27.58;36.69;98603.89;104834;1274;75772;-22
2022/06/08 07:54:38;;;;;;;4.30;1.00;;;;;;;27.87;36.05;98600.86;104854;1274;77040;-22
2022/06/08 07:57:06;;;;;;;4.10;0.90;;;;;;;28.09;35.74;98598.39;104905;1274;73381;-22
2022/06/08 07:59:36;;;;;;;3.20;0.80;;;;;;;28.22;35.87;98596.58;105029;1273;61956;-23
2022/06/08 08:02:04;;;;;;;2.20;0.70;;;;;;;28.34;34.89;98596.36;105045;1271;62125;-22
2022/06/08 08:04:32;;;;;;;6.40;1.10;;;;;;;28.26;33.19;98600.20;104788;1274;76582;-23
2022/06/08 08:06:59;;;;;;;1.20;0.90;;;;;;;28.18;33.81;98603.01;104937;1272;76993;-23
2022/06/08 08:09:26;;;;;;;2.60;1.10;;;;;;;27.91;33.25;98604.64;104705;1274;74279;-23
2022/06/08 08:11:54;;;;;;;1.40;0.80;;;;;;;27.48;33.90;98604.48;104594;1273;61735;-23
2022/06/08 08:14:22;;;;;;;1.40;0.80;;;;;;;27.68;34.70;98598.67;104645;1273;63081;-23
2022/06/08 08:16:50;;;;;;;3.10;1.00;;;;;;;28.17;35.08;98589.70;104434;1274;76616;-24
2022/06/08 08:19:20;;;;;;;1.70;1.00;;;;;;;28.32;34.78;98592.75;105011;1274;76749;-23
2022/06/08 08:21:47;;;;;;;2.40;0.80;;;;;;;28.63;36.17;98590.66;104749;1272;75469;-24
2022/06/08 08:24:15;;;;;;;1.30;1.00;;;;;;;27.89;31.49;98587.30;104389;1274;61862;-24
2022/06/08 08:26:43;;;;;;;2.30;1.00;;;;;;;27.66;34.32;98589.98;104957;1271;62843;-24
2022/06/08 08:29:11;;;;;;;4.00;0.80;;;;;;;28.16;36.10;98588.58;104667;1274;75208;-23
2022/06/08 08:31:40;;;;;;;1.70;0.80;;;;;;;28.70;33.97;98582.38;104729;1274;77008;-23
2022/06/08 08:34:08;;;;;;;1.70;0.80;;;;;;;29.09;32.03;98578.87;104847;1274;74407;-23
2022/06/08 08:36:35;;;;;;;2.20;0.80;;;;;;;28.87;32.51;98582.89;104649;1273;61745;-23
2022/06/08 08:39:03;;;;;;;1.90;0.90;;;;;;;28.68;32.54;98583.69;104999;1274;61953;-23
2022/06/08 08:44:40;;;;;;;3.00;1.10;;;;;;;28.08;31.41;98577.61;104732;1274;77087;-23
2022/06/08 08:47:43;;;;;;;4.50;1.00;;;;;;;27.84;32.93;98583.23;104857;1273;75243;-23
2022/06/08 08:50:14;;;;;;;1.00;0.90;;;;;;;27.34;32.15;98589.18;104744;1274;61345;-23
2022/06/08 08:53:00;;;;;;;2.80;1.00;;;;;;;27.02;32.20;98586.05;104718;1274;63060;-23
2022/06/08 08:55:48;;;;;;;1.50;0.90;;;;;;;27.40;32.70;98587.02;104616;1274;75105;-23
2022/06/08 08:58:16;;;;;;;1.10;0.80;;;;;;;27.70;31.18;98583.08;104669;1274;76719;-24
2022/06/08 09:00:56;;;;;;;2.80;0.90;;;;;;;27.37;32.12;98588.45;104674;1274;75444;-23
2022/06/08 09:03:26;;;;;;;1.80;0.90;;;;;;;26.78;32.54;98586.30;104603;1274;61042;-23
2022/06/08 09:06:00;;;;;;;1.00;0.90;;;;;;;26.59;34.50;98583.10;104611;1272;62362;-24
2022/06/08 09:08:27;;;;;;;0.90;0.60;;;;;;;26.92;33.75;98583.27;104688;1274;76723;-23
2022/06/08 09:10:57;;;;;;;1.40;0.90;;;;;;;26.73;33.50;98581.16;104591;1271;76049;-23
2022/06/08 09:13:45;;;;;;;5.50;1.00;;;;;;;26.65;34.72;98581.19;104718;1274;74437;-23
2022/06/08 09:16:38;;;;;;;4.10;1.00;;;;;;;26.38;32.87;98579.19;104394;1274;61096;-23
2022/06/08 09:19:21;;;;;;;3.80;1.20;;;;;;;26.50;32.67;98575.08;104680;1274;61847;-25
2022/06/08 09:21:49;;;;;;;1.50;1.10;;;;;;;26.71;32.81;98572.05;104640;1274;75952;-25
2022/06/08 09:24:46;;;;;;;1.90;1.10;;;;;;;27.07;33.52;98573.88;104590;1274;76747;-23
2022/06/08 09:27:25;;;;;;;1.70;1.10;;;;;;;27.28;32.69;98573.27;104496;1274;74356;-25
2022/06/08 09:29:59;;;;;;;3.00;1.00;;;;;;;27.58;31.72;98572.24;104792;1274;62044;-25
2022/06/08 09:32:28;;;;;;;3.80;1.00;;;;;;;27.96;33.18;98573.69;104986;1274;62027;-23
2022/06/08 09:34:57;;;;;;;2.80;1.00;;;;;;;27.93;31.60;98574.52;104858;1274;76603;-23
2022/06/08 09:37:25;;;;;;;1.20;0.90;;;;;;;27.71;30.83;98570.04;104539;1274;77004;-23
2022/06/08 09:39:54;;;;;;;1.20;0.80;;;;;;;27.72;31.94;98567.69;104465;1274;74490;-23
2022/06/08 09:42:22;;;;;;;1.70;0.90;;;;;;;28.10;30.34;98559.49;104573;1274;62793;-23
2022/06/08 09:45:19;;;;;;;3.10;0.90;;;;;;;28.45;30.31;98555.17;104590;1274;63434;-23
2022/06/08 09:53:51;;;;;;;1.70;0.90;;;;;;;29.71;29.50;98549.68;104784;1274;75496;-23
2022/06/08 09:56:43;;;;;;;1.60;1.10;;;;;;;29.58;31.29;98549.85;104450;1274;63085;-24
2022/06/08 09:59:13;;;;;;;2.10;0.90;;;;;;;29.57;30.12;98552.68;104603;1274;62023;-23
2022/06/08 10:02:00;;;;;;;12.80;1.40;;;;;;;28.90;29.79;98549.40;104587;1274;75346;-23
2022/06/08 10:05:06;;;;;;;4.90;1.20;;;;;;;28.11;31.08;98547.89;104589;1274;77016;-23
2022/06/08 10:08:00;;;;;;;2.50;0.80;;;;;;;28.25;32.55;98550.72;104639;1274;74402;-23
2022/06/08 10:10:50;;;;;;;1.50;0.70;;;;;;;28.51;31.54;98546.86;104448;1274;63300;-23
2022/06/08 10:13:24;;;;;;;2.30;0.80;;;;;;;29.11;31.00;98541.20;104740;1274;61966;-23
2022/06/08 10:15:54;;;;;;;3.20;0.80;;;;;;;29.42;32.21;98540.66;104563;1274;76527;-24
2022/06/08 10:18:34;;;;;;;8.90;1.10;;;;;;;30.08;30.99;98534.06;104484;1273;75966;-24
2022/06/08 10:21:11;;;;;;;2.60;1.10;;;;;;;30.61;28.87;98532.45;104557;1273;74516;-24
2022/06/08 10:24:12;;;;;;;1.30;0.90;;;;;;;31.05;29.42;98532.75;104445;1274;62202;-24
2022/06/08 10:27:11;;;;;;;3.30;1.30;;;;;;;31.36;27.01;98522.83;104647;1274;62819;-24
2022/06/08 10:30:04;;;;;;;1.10;0.80;;;;;;;31.13;26.63;98520.95;104744;1274;75515;-25
2022/06/08 10:32:38;;;;;;;2.90;1.10;;;;;;;30.42;27.61;98522.08;104655;1274;75164;-24
2022/06/08 10:35:27;;;;;;;2.90;1.10;;;;;;;30.20;29.86;98523.56;104599;1274;75352;-24
2022/06/08 10:37:55;;;;;;;3.40;0.80;;;;;;;30.03;28.76;98522.48;104572;1273;62189;-24
2022/06/08 10:40:43;;;;;;;1.50;0.90;;;;;;;30.21;28.76;98521.73;104650;1274;63025;-23
2022/06/08 10:43:18;;;;;;;2.70;1.00;;;;;;;30.72;27.11;98526.69;104688;1274;76185;-24
2022/06/08 10:45:55;;;;;;;3.70;0.80;;;;;;;31.14;26.71;98521.34;104663;1274;76998;-24
2022/06/08 10:48:25;;;;;;;2.90;1.00;;;;;;;31.59;27.30;98519.29;104439;1274;74092;-24
2022/06/08 10:51:11;;;;;;;3.40;1.30;;;;;;;32.08;27.57;98517.33;104395;1276;63141;-24
2022/06/08 10:56:49;;;;;;;4.30;0.90;;;;;;;32.50;26.76;98517.02;104605;1274;76326;-24
2022/06/08 10:59:18;;;;;;;1.20;0.90;;;;;;;32.67;27.56;98520.06;104604;1274;77079;-24
2022/06/08 11:02:15;;;;;;;2.10;0.80;;;;;;;32.85;25.92;98513.85;104677;1274;75256;-24
2022/06/08 11:04:56;;;;;;;2.40;0.70;;;;;;;32.11;26.45;98511.34;104708;1274;63400;-24
2022/06/08 11:07:24;;;;;;;2.10;1.00;;;;;;;31.42;26.42;98516.99;104709;1274;62015;-24
2022/06/08 11:09:57;;;;;;;1.40;0.90;;;;;;;31.53;27.29;98515.55;104625;1274;76351;-24
2022/06/08 11:12:50;;;;;;;4.00;1.10;;;;;;;31.25;25.96;98512.05;104350;1274;76756;-24
2022/06/08 11:15:23;;;;;;;;;;;;;;;30.53;27.88;98518.04;104458;1275;75562;-24
2022/06/08 11:17:58;;;;;;;2.10;0.80;;;;;;;30.22;27.73;98512.66;104379;1274;61982;-24
2022/06/08 11:20:29;;;;;;;2.30;0.70;;;;;;;30.47;28.06;98509.81;104595;1274;62034;-24
2022/06/08 11:23:24;;;;;;;1.40;0.70;;;;;;;30.25;29.14;98509.39;104468;1274;76111;-24
2022/06/08 11:26:05;;;;;;;6.40;1.10;;;;;;;29.40;29.93;98507.09;104880;1274;76787;-25
2022/06/08 11:28:43;;;;;;;2.10;0.90;;;;;;;29.08;30.09;98504.36;104838;1274;75474;-24
2022/06/08 11:31:32;;;;;;;1.10;0.80;;;;;;;29.02;32.20;98504.01;104697;1274;62159;-24
2022/06/08 11:34:19;;;;;;;2.80;0.90;;;;;;;29.46;31.31;98503.52;104542;1273;62078;-24
2022/06/08 11:37:14;;;;;;;1.10;0.80;;;;;;;29.59;31.25;98505.88;104821;1274;75598;-24
2022/06/08 11:40:10;;;;;;;2.10;0.90;;;;;;;29.72;31.18;98506.55;104761;1274;75932;-24
2022/06/08 11:42:51;;;;;;;2.20;0.90;;;;;;;29.68;31.29;98502.41;104698;1274;75500;-24
2022/06/08 11:45:19;;;;;;;1.50;0.90;;;;;;;29.93;30.95;98500.38;104484;1274;461963;-24
2022/06/08 11:47:48;;;;;;;0.90;0.70;;;;;;;30.06;28.80;98493.10;104621;1274;62139;-24
2022/06/08 11:50:21;;;;;;;1.70;0.90;;;;;;;30.36;29.50;98492.04;104725;1274;75285;-24
2022/06/08 11:53:01;;;;;;;1.60;0.80;;;;;;;30.46;29.90;98493.33;104600;1274;77072;-24
2022/06/08 11:55:30;;;;;;;2.90;1.00;;;;;;;30.40;29.64;98494.89;104595;1274;74357;-24
2022/06/08 11:58:08;;;;;;;2.90;1.40;;;;;;;30.65;29.70;98494.23;104660;1274;63094;-24
2022/06/08 12:00:50;;;;;;;4.00;1.10;;;;;;;30.74;28.58;98495.68;104596;1274;62030;-24
2022/06/08 12:03:40;;;;;;;1.00;0.80;;;;;;;30.75;27.92;98489.87;104410;1274;76599;-24
2022/06/08 12:06:13;;;;;;;1.20;0.60;;;;;;;30.55;29.52;98488.60;104687;1274;77099;-24
2022/06/08 12:08:45;;;;;;;1.00;0.70;;;;;;;30.33;28.95;98488.65;104748;1274;74119;-24